»·PEaware :: DAL2189 KPDX-KSLC

DAL2189 :: KPDX-KSLC

FLIGHT INFORMATION

Flight Status: Arrived
Operator:
Delta Air Lines
More flights by this operator :: More flights under this callsign
Pilot: Patricio R. (14780)
Aircraft: AIRBUS A320
(A320)
More flights by this aircraft type
Origin: KPDX Portland Intl
United States
Destination: KSLC Salt Lake City Intl
United States
More flights between these airports :: More routes between these airports
Route: WHAMY4 IMB J15 BOI BYI SKEES5
File this flight plan on PilotEdge
Remarks:
Altitude:
(Current/Filed)
35,000ft
Speed:
(Current/Filed)
434kts
Departed: 04-Aug-18 12:32 PM
Arrived: 04-Aug-18 02:03 PM
Distance/Time
Traveled:
546nm/1:31
Distance/Time
To Go:
Arrived

Flight Plot

Page will automatically refresh every two minutes.

Flight plan parsing failed; only flown route is shown


Map Options




Map Legend


Flown Route
Filed Route
Departure Airport
Arrival Airport
Navaid (VOR, NDB)
Fix

Horizontal Profiles

Position Reports

Time Latitude Longitude Heading Altitude Ground
Speed
04-Aug-18 12:06 45.591400 -122.594723 230 38ft 0kts
04-Aug-18 12:07 45.591400 -122.594723 230 38ft 0kts
04-Aug-18 12:08 45.591400 -122.594723 230 38ft 0kts
04-Aug-18 12:09 45.591400 -122.594723 230 38ft 0kts
04-Aug-18 12:10 45.591400 -122.594723 230 38ft 0kts
04-Aug-18 12:11 45.591400 -122.594723 230 38ft 0kts
04-Aug-18 12:12 45.591400 -122.594723 230 38ft 0kts
04-Aug-18 12:13 45.591400 -122.594723 230 38ft 0kts
04-Aug-18 12:14 45.591400 -122.594723 230 38ft 0kts
04-Aug-18 12:15 45.591400 -122.594723 230 38ft 0kts
04-Aug-18 12:16 45.591400 -122.594723 230 38ft 0kts
04-Aug-18 12:17 45.591400 -122.594723 230 38ft 0kts
04-Aug-18 12:18 45.591400 -122.594723 230 38ft 0kts
04-Aug-18 12:19 45.591400 -122.594723 230 38ft 0kts
04-Aug-18 12:20 45.591400 -122.594723 230 38ft 0kts
04-Aug-18 12:21 45.591400 -122.594723 230 38ft 0kts
04-Aug-18 12:22 45.591400 -122.594723 230 38ft 0kts
04-Aug-18 12:23 45.591400 -122.594723 230 38ft 0kts
04-Aug-18 12:24 45.591401 -122.594722 230 38ft 0kts
04-Aug-18 12:25 45.591733 -122.594152 230 38ft 2kts
04-Aug-18 12:26 45.592099 -122.594036 113 38ft 1kts
04-Aug-18 12:27 45.592117 -122.594089 118 38ft 0kts
04-Aug-18 12:28 45.592117 -122.594089 118 38ft 0kts
04-Aug-18 12:29 45.590385 -122.589673 119 38ft 18kts
04-Aug-18 12:30 45.588924 -122.583773 119 38ft 16kts
04-Aug-18 12:31 45.586459 -122.577429 118 38ft 19kts
04-Aug-18 12:32 45.583584 -122.570025 118 38ft 22kts
04-Aug-18 12:33 45.584984 -122.570422 298 38ft 78kts
04-Aug-18 12:34 45.606672 -122.625894 299 2263ft 184kts
04-Aug-18 12:35 45.630992 -122.705482 300 4652ft 261kts
04-Aug-18 12:36 45.668486 -122.800247 289 8111ft 284kts
04-Aug-18 12:37 45.646448 -122.906998 219 11449ft 304kts
04-Aug-18 12:38 45.560718 -122.901625 153 13534ft 353kts
04-Aug-18 12:39 45.507725 -122.785582 112 16111ft 366kts
04-Aug-18 12:40 45.466441 -122.651087 112 18493ft 379kts
04-Aug-18 12:41 45.423200 -122.512466 112 20612ft 391kts
04-Aug-18 12:42 45.378475 -122.370068 112 22518ft 403kts
04-Aug-18 12:43 45.332239 -122.223679 113 24251ft 414kts
04-Aug-18 12:44 45.284537 -122.073523 113 25826ft 425kts
04-Aug-18 12:45 45.238721 -121.917702 108 27265ft 434kts
04-Aug-18 12:46 45.197106 -121.755307 108 28556ft 443kts
04-Aug-18 12:47 45.154353 -121.589623 108 29743ft 452kts
04-Aug-18 12:48 45.110595 -121.421219 109 30830ft 460kts
04-Aug-18 12:49 45.066380 -121.252243 110 32062ft 462kts
04-Aug-18 12:50 45.021296 -121.081241 112 32951ft 470kts
04-Aug-18 12:51 44.975192 -120.907654 115 33838ft 476kts
04-Aug-18 12:52 44.928776 -120.733997 116 35017ft 472kts
04-Aug-18 12:53 44.882368 -120.561752 116 35139ft 471kts
04-Aug-18 12:54 44.835650 -120.389631 116 35156ft 471kts
04-Aug-18 12:55 44.788794 -120.218167 116 35172ft 470kts
04-Aug-18 12:56 44.741762 -120.047295 116 35191ft 470kts
04-Aug-18 12:57 44.694775 -119.877785 116 35194ft 470kts
04-Aug-18 12:58 44.647253 -119.707525 116 35199ft 470kts
04-Aug-18 12:59 44.597905 -119.538251 117 35198ft 470kts
04-Aug-18 13:00 44.548200 -119.368918 117 35196ft 470kts
04-Aug-18 13:01 44.498274 -119.199878 118 35195ft 469kts
04-Aug-18 13:02 44.448269 -119.031716 118 35190ft 469kts
04-Aug-18 13:03 44.397762 -118.863056 120 35142ft 474kts
04-Aug-18 13:04 44.346069 -118.691673 121 35191ft 488kts
04-Aug-18 13:05 44.292916 -118.516343 121 35156ft 492kts
04-Aug-18 13:06 44.240279 -118.343924 121 35159ft 490kts
04-Aug-18 13:07 44.187102 -118.170997 121 35173ft 489kts
04-Aug-18 13:08 44.133335 -117.997338 122 35175ft 488kts
04-Aug-18 13:09 44.079480 -117.824562 121 35144ft 489kts
04-Aug-18 13:10 44.025172 -117.651473 121 35127ft 489kts
04-Aug-18 13:11 43.970531 -117.478465 121 35131ft 490kts
04-Aug-18 13:12 43.915719 -117.306047 122 35138ft 490kts
04-Aug-18 13:13 43.860966 -117.134942 122 35128ft 489kts
04-Aug-18 13:14 43.805622 -116.963172 122 35077ft 492kts
04-Aug-18 13:15 43.749162 -116.789122 123 35077ft 501kts
04-Aug-18 13:16 43.691608 -116.612733 122 35160ft 507kts
04-Aug-18 13:17 43.633303 -116.435202 122 35170ft 510kts
04-Aug-18 13:18 43.574842 -116.258372 123 35181ft 508kts
04-Aug-18 13:19 43.510721 -116.087431 128 35148ft 499kts
04-Aug-18 13:20 43.443619 -115.921377 128 35109ft 497kts
04-Aug-18 13:21 43.376226 -115.755605 128 35094ft 496kts
04-Aug-18 13:22 43.308718 -115.590464 128 35098ft 496kts
04-Aug-18 13:23 43.241091 -115.425981 128 35112ft 497kts
04-Aug-18 13:24 43.173580 -115.262684 129 35122ft 496kts
04-Aug-18 13:25 43.105489 -115.098950 129 35114ft 496kts
04-Aug-18 13:26 43.036710 -114.934553 128 35129ft 502kts
04-Aug-18 13:27 42.966899 -114.768580 128 35164ft 510kts
04-Aug-18 13:28 42.895796 -114.600466 127 35220ft 516kts
04-Aug-18 13:29 42.824536 -114.432938 127 35224ft 519kts
04-Aug-18 13:30 42.753926 -114.267860 128 35222ft 518kts
04-Aug-18 13:31 42.681570 -114.099693 128 35182ft 515kts
04-Aug-18 13:32 42.609703 -113.933521 128 34482ft 504kts
04-Aug-18 13:33 42.525096 -113.791570 145 32133ft 484kts
04-Aug-18 13:34 42.430554 -113.665076 144 29277ft 476kts
04-Aug-18 13:35 42.336183 -113.539376 142 24632ft 474kts
04-Aug-18 13:36 42.242706 -113.415505 142 24129ft 482kts
04-Aug-18 13:37 42.148128 -113.290542 142 24130ft 483kts
04-Aug-18 13:38 42.052304 -113.164721 142 24130ft 483kts
04-Aug-18 13:39 41.957938 -113.040875 143 24144ft 449kts
04-Aug-18 13:40 41.876962 -112.935081 143 23445ft 402kts
04-Aug-18 13:41 41.811771 -112.850479 143 22762ft 384kts
04-Aug-18 13:42 41.735270 -112.751551 143 21937ft 381kts
04-Aug-18 13:43 41.659750 -112.653522 142 21128ft 375kts
04-Aug-18 13:44 41.585762 -112.557657 143 20304ft 369kts
04-Aug-18 13:45 41.507464 -112.467017 151 17957ft 369kts
04-Aug-18 13:46 41.420815 -112.399848 156 16069ft 355kts
04-Aug-18 13:47 41.335722 -112.339542 156 14487ft 336kts
04-Aug-18 13:48 41.256544 -112.283631 155 13450ft 318kts
04-Aug-18 13:49 41.180516 -112.227006 153 12811ft 312kts
04-Aug-18 13:50 41.105919 -112.170118 153 12337ft 309kts
04-Aug-18 13:51 41.026256 -112.136512 173 11858ft 302kts
04-Aug-18 13:52 40.944310 -112.118842 172 11390ft 299kts
04-Aug-18 13:53 40.865434 -112.105349 177 11122ft 275kts
04-Aug-18 13:54 40.788326 -112.096283 177 11106ft 279kts
04-Aug-18 13:55 40.709570 -112.087586 177 11086ft 293kts
04-Aug-18 13:56 40.629225 -112.078952 177 9579ft 290kts
04-Aug-18 13:57 40.559819 -112.046369 117 8617ft 279kts
04-Aug-18 13:58 40.563237 -111.947941 60 8067ft 257kts
04-Aug-18 13:59 40.618054 -111.931500 341 7967ft 193kts
04-Aug-18 14:00 40.662649 -111.946447 342 6689ft 152kts
04-Aug-18 14:01 40.702499 -111.959668 342 5635ft 146kts
04-Aug-18 14:02 40.742267 -111.969149 353 4913ft 145kts
04-Aug-18 14:03 40.781606 -111.974046 356 4238ft 128kts
04-Aug-18 14:04 40.795478 -111.976974 266 4236ft 0kts
04-Aug-18 14:05 40.795478 -111.976975 266 4236ft 0kts
04-Aug-18 14:06 40.791575 -111.977276 175 4236ft 20kts
04-Aug-18 14:07 40.789829 -111.979493 212 4236ft 12kts
04-Aug-18 14:08 40.789046 -111.979186 135 4236ft 0kts

Navigation Log

Ident Type
Flight plan parsing failed, navigation log unavailable